Terminal Aerodrome Forecast
Issued by NWS

Home | Current Version | Previous Version | Text Only | Print | Product List | Glossary On
Versions: 1 2 3 4 5 6 7 8 9 10 11 12 13
000
FTUS43 KGRR 192300
TAFMKG
TAF
KMKG 192330Z 2000/2024 13006KT P6SM BKN250
     FM201200 16012KT P6SM BKN150
     FM201600 19016G26KT P6SM BKN250=

USA.gov is the U.S. government's official web portal to all federal, state and local government web resources and services.